Time;durP1;ratioP1;P1;durP2;ratioP2;P2;SDS_P1;SDS_P2;PMS_P1;PMS_P2;Temp;Humidity;BMP_temperature;BMP_pressure;BME280_temperature;BME280_humidity;BME280_pressure;Samples;Min_cycle;Max_cycle;Signal;HPM_P1;HPM_P2
2022/12/28 00:02:17;;;;;;;;;;;19.90;50.90;;;;;;5145554;27;45224;-60
2022/12/28 00:04:45;;;;;;;;;;;19.90;50.90;;;;;;5144768;27;43470;-59
2022/12/28 00:07:12;;;;;;;;;;;19.80;50.90;;;;;;5145232;27;43463;-59
2022/12/28 00:09:40;;;;;;;;;;;19.80;50.90;;;;;;5145168;27;43449;-59
2022/12/28 00:12:08;;;;;;;;;;;19.80;50.90;;;;;;5145117;27;43784;-59
2022/12/28 00:14:35;;;;;;;;;;;19.80;50.90;;;;;;5137315;27;43422;-59
2022/12/28 00:17:02;;;;;;;;;;;19.80;50.90;;;;;;5135888;27;43391;-59
2022/12/28 00:19:29;;;;;;;;;;;19.80;50.90;;;;;;5144471;27;43426;-59
2022/12/28 00:21:57;;;;;;;;;;;19.80;51.00;;;;;;5145392;27;44682;-59
2022/12/28 00:24:24;;;;;;;;;;;19.80;50.90;;;;;;5144570;27;43496;-59
2022/12/28 00:26:52;;;;;;;;;;;19.80;51.00;;;;;;5144980;27;43487;-59
2022/12/28 00:29:19;;;;;;;;;;;19.80;50.90;;;;;;5128701;27;43506;-59
2022/12/28 00:31:46;;;;;;;;;;;19.80;51.00;;;;;;5143126;27;44975;-59
2022/12/28 00:34:14;;;;;;;;;;;19.70;50.90;;;;;;5142333;27;44295;-59
2022/12/28 00:36:41;;;;;;;;;;;19.80;51.00;;;;;;5123020;27;43383;-59
2022/12/28 00:39:29;;;;;;;;;;;19.70;50.90;;;;;;5123876;27;43356;-59
2022/12/28 00:41:56;;;;;;;;;;;19.70;51.00;;;;;;5140241;27;43918;-59
2022/12/28 00:44:23;;;;;;;;;;;19.70;51.00;;;;;;5124509;27;43587;-59
2022/12/28 00:46:50;;;;;;;;;;;19.70;51.10;;;;;;5123528;27;43420;-59
2022/12/28 00:49:18;;;;;;;;;;;19.60;51.70;;;;;;5122699;27;43541;-59
2022/12/28 00:51:45;;;;;;;;;;;19.60;51.10;;;;;;5123929;27;44777;-59
2022/12/28 00:54:13;;;;;;;;;;;19.60;51.10;;;;;;5123368;27;43496;-59
2022/12/28 00:56:44;;;;;;;;;;;19.60;51.10;;;;;;5124027;27;43445;-59
2022/12/28 00:59:13;;;;;;;;;;;19.60;51.10;;;;;;5123554;27;43520;-59
2022/12/28 01:01:41;;;;;;;;;;;19.60;51.10;;;;;;5121866;27;44068;-59
2022/12/28 01:04:08;;;;;;;;;;;19.60;51.10;;;;;;5122824;27;43418;-59
2022/12/28 01:06:36;;;;;;;;;;;19.60;51.10;;;;;;5123357;27;43360;-59
2022/12/28 01:09:03;;;;;;;;;;;19.60;51.10;;;;;;5125287;27;43517;-59
2022/12/28 01:11:31;;;;;;;;;;;19.60;51.10;;;;;;5143988;27;44682;-59
2022/12/28 01:13:59;;;;;;;;;;;19.60;51.10;;;;;;5144146;27;43747;-59
2022/12/28 01:16:31;;;;;;;;;;;19.60;51.10;;;;;;5130284;27;43667;-59
2022/12/28 01:19:00;;;;;;;;;;;19.60;51.10;;;;;;5123382;27;43452;-59
2022/12/28 01:21:28;;;;;;;;;;;19.60;51.10;;;;;;5122875;27;44029;-59
2022/12/28 01:23:57;;;;;;;;;;;19.60;51.20;;;;;;5123526;27;43529;-59
2022/12/28 01:26:25;;;;;;;;;;;19.60;51.20;;;;;;5123415;27;43385;-59
2022/12/28 01:28:52;;;;;;;;;;;19.50;51.10;;;;;;5122699;27;43614;-59
2022/12/28 01:31:20;;;;;;;;;;;19.60;51.20;;;;;;5123104;27;43783;-59
2022/12/28 01:33:49;;;;;;;;;;;19.50;51.10;;;;;;5122009;27;43441;-60
2022/12/28 01:36:18;;;;;;;;;;;19.50;51.10;;;;;;5122639;27;43437;-59
2022/12/28 01:38:45;;;;;;;;;;;19.50;51.10;;;;;;5125763;27;43645;-59
2022/12/28 01:41:14;;;;;;;;;;;19.50;51.10;;;;;;5144003;27;44774;-59
2022/12/28 01:43:52;;;;;;;;;;;19.50;51.20;;;;;;5143038;27;43498;-59
2022/12/28 01:46:28;;;;;;;;;;;19.50;51.10;;;;;;5126569;27;43399;-59
2022/12/28 01:48:58;;;;;;;;;;;19.50;51.20;;;;;;5122974;27;43406;-59
2022/12/28 01:51:27;;;;;;;;;;;19.40;51.20;;;;;;5132334;27;44749;-59
2022/12/28 01:53:58;;;;;;;;;;;19.40;51.20;;;;;;5127749;27;43501;-59
2022/12/28 01:56:26;;;;;;;;;;;19.40;51.20;;;;;;5123261;27;43402;-59
2022/12/28 01:58:54;;;;;;;;;;;19.40;51.20;;;;;;5122760;27;43437;-59
2022/12/28 02:01:21;;;;;;;;;;;19.40;51.20;;;;;;5124658;27;45174;-59
2022/12/28 02:03:49;;;;;;;;;;;19.40;51.20;;;;;;5126239;27;43398;-59
2022/12/28 02:06:17;;;;;;;;;;;19.40;51.20;;;;;;5125285;27;43375;-59
2022/12/28 02:08:55;;;;;;;;;;;19.40;51.20;;;;;;5124989;27;43488;-59
2022/12/28 02:11:23;;;;;;;;;;;19.40;51.20;;;;;;5125808;27;44670;-59
2022/12/28 02:13:51;;;;;;;;;;;19.40;51.30;;;;;;5124851;27;43402;-59
2022/12/28 02:16:18;;;;;;;;;;;19.40;51.30;;;;;;5126502;27;43432;-59
2022/12/28 02:18:47;;;;;;;;;;;19.40;51.30;;;;;;5124701;27;43493;-58
2022/12/28 02:21:23;;;;;;;;;;;19.40;51.30;;;;;;5124836;27;44799;-59
2022/12/28 02:24:05;;;;;;;;;;;19.40;51.30;;;;;;5125770;27;43415;-59
2022/12/28 02:26:49;;;;;;;;;;;19.40;51.40;;;;;;5126148;27;43364;-59
2022/12/28 02:29:25;;;;;;;;;;;19.30;51.30;;;;;;5126265;27;43411;-59
2022/12/28 02:32:16;;;;;;;;;;;19.30;51.30;;;;;;5124424;27;45112;-59
2022/12/28 02:34:52;;;;;;;;;;;19.30;51.30;;;;;;5114929;27;43710;-59
2022/12/28 02:37:23;;;;;;;;;;;19.30;51.30;;;;;;5124614;27;43411;-59
2022/12/28 02:40:11;;;;;;;;;;;19.30;51.40;;;;;;5129581;27;43426;-60
2022/12/28 02:42:39;;;;;;;;;;;19.30;51.40;;;;;;5146634;27;43897;-59
2022/12/28 02:50:49;;;;;;;;;;;19.20;51.40;;;;;;5125960;27;43408;-59
2022/12/28 02:53:32;;;;;;;;;;;19.20;51.40;;;;;;5125126;27;43912;-59
2022/12/28 02:56:08;;;;;;;;;;;19.20;51.40;;;;;;5124906;27;43485;-59
2022/12/28 02:58:49;;;;;;;;;;;19.20;51.40;;;;;;5125486;27;43407;-59
2022/12/28 03:01:20;;;;;;;;;;;19.20;51.40;;;;;;5123926;27;43553;-59
2022/12/28 03:03:50;;;;;;;;;;;19.20;51.50;;;;;;5125375;27;45002;-60
2022/12/28 03:09:33;;;;;;;;;;;19.20;51.50;;;;;;5124849;27;43445;-59
2022/12/28 03:12:01;;;;;;;;;;;19.10;51.40;;;;;;5136309;27;43597;-60
2022/12/28 03:14:35;;;;;;;;;;;19.10;51.40;;;;;;5129958;27;45440;-60
2022/12/28 03:31:06;;;;;;;;;;;19.10;51.50;;;;;;5141506;27;43508;-59
2022/12/28 03:33:44;;;;;;;;;;;19.10;51.60;;;;;;5108309;27;43553;-59
2022/12/28 03:36:27;;;;;;;;;;;19.10;51.60;;;;;;5123159;27;43877;-59
2022/12/28 03:39:13;;;;;;;;;;;19.00;51.60;;;;;;5129333;27;43469;-59
2022/12/28 03:41:42;;;;;;;;;;;19.00;51.60;;;;;;5132857;27;43405;-59
2022/12/28 03:44:31;;;;;;;;;;;19.00;51.60;;;;;;5125282;27;43460;-59
2022/12/28 03:47:04;;;;;;;;;;;19.00;51.60;;;;;;5123915;27;43886;-59
2022/12/28 03:49:33;;;;;;;;;;;19.00;51.60;;;;;;5123009;27;43539;-59
2022/12/28 03:52:01;;;;;;;;;;;19.00;51.60;;;;;;5123770;27;43420;-59
2022/12/28 03:54:28;;;;;;;;;;;19.00;51.60;;;;;;5123586;27;43650;-59
2022/12/28 03:56:56;;;;;;;;;;;19.00;51.60;;;;;;5140417;27;44041;-59
2022/12/28 03:59:30;;;;;;;;;;;19.00;51.60;;;;;;5123842;27;43436;-59
2022/12/28 04:01:59;;;;;;;;;;;19.00;51.60;;;;;;5123721;27;43418;-59
2022/12/28 04:04:29;;;;;;;;;;;18.90;51.50;;;;;;5123325;27;43578;-59
2022/12/28 04:06:56;;;;;;;;;;;18.90;51.60;;;;;;5123483;27;44931;-59
2022/12/28 04:09:25;;;;;;;;;;;18.90;51.60;;;;;;5122766;27;43576;-59
2022/12/28 04:11:53;;;;;;;;;;;18.90;51.70;;;;;;5123308;27;43488;-59
2022/12/28 04:14:28;;;;;;;;;;;18.90;51.70;;;;;;5123041;27;43451;-59
2022/12/28 04:16:56;;;;;;;;;;;18.90;51.60;;;;;;5106214;27;44943;-59
2022/12/28 04:19:24;;;;;;;;;;;18.90;51.70;;;;;;5127276;27;44094;-59
2022/12/28 04:21:51;;;;;;;;;;;18.90;51.70;;;;;;5125810;27;43518;-59
2022/12/28 04:24:19;;;;;;;;;;;18.90;51.60;;;;;;5122206;27;43596;-59
2022/12/28 04:26:47;;;;;;;;;;;18.90;51.60;;;;;;5122523;27;45118;-59
2022/12/28 04:29:14;;;;;;;;;;;18.90;51.60;;;;;;5122815;27;43553;-59
2022/12/28 04:31:56;;;;;;;;;;;18.90;51.70;;;;;;5139622;27;43451;-59
2022/12/28 04:34:24;;;;;;;;;;;18.90;51.70;;;;;;5122774;27;43721;-59
2022/12/28 04:36:57;;;;;;;;;;;18.90;51.80;;;;;;5123046;27;44938;-59
2022/12/28 04:39:24;;;;;;;;;;;18.80;51.70;;;;;;5122293;27;43791;-59
2022/12/28 04:41:51;;;;;;;;;;;18.80;51.80;;;;;;5145383;27;43543;-59
2022/12/28 04:44:19;;;;;;;;;;;18.80;51.80;;;;;;5144569;27;43612;-59
2022/12/28 04:46:46;;;;;;;;;;;18.80;51.90;;;;;;5131141;27;44997;-60
2022/12/28 04:49:14;;;;;;;;;;;18.80;51.80;;;;;;5123909;27;43558;-59
2022/12/28 04:51:42;;;;;;;;;;;18.80;51.80;;;;;;5124248;27;43462;-59
2022/12/28 04:54:11;;;;;;;;;;;18.80;51.80;;;;;;5123662;27;43458;-59
2022/12/28 04:56:38;;;;;;;;;;;18.80;51.80;;;;;;5123912;27;43748;-59
2022/12/28 04:59:06;;;;;;;;;;;18.80;51.80;;;;;;5122962;27;43641;-59
2022/12/28 05:01:33;;;;;;;;;;;18.80;51.80;;;;;;5124055;27;43468;-59
2022/12/28 05:04:00;;;;;;;;;;;18.80;51.80;;;;;;5123856;27;43486;-59
2022/12/28 05:06:28;;;;;;;;;;;18.80;51.80;;;;;;5123629;27;43867;-59
2022/12/28 05:08:56;;;;;;;;;;;18.80;51.80;;;;;;5123789;27;43424;-59
2022/12/28 05:11:25;;;;;;;;;;;18.70;51.90;;;;;;5144924;27;43480;-59
2022/12/28 05:13:52;;;;;;;;;;;18.70;51.90;;;;;;5143745;27;43485;-59
2022/12/28 05:16:21;;;;;;;;;;;18.70;51.90;;;;;;5131078;27;44664;-59
2022/12/28 05:18:48;;;;;;;;;;;18.70;51.90;;;;;;5122451;27;43496;-58
2022/12/28 05:21:20;;;;;;;;;;;18.70;51.90;;;;;;5123550;27;43475;-59
2022/12/28 05:23:48;;;;;;;;;;;18.70;51.90;;;;;;5123752;27;43407;-59
2022/12/28 05:26:16;;;;;;;;;;;18.70;51.90;;;;;;5123608;27;45070;-59
2022/12/28 05:28:43;;;;;;;;;;;18.70;51.90;;;;;;5121196;27;43465;-59
2022/12/28 05:31:12;;;;;;;;;;;18.70;52.00;;;;;;5123800;27;43447;-59
2022/12/28 05:33:40;;;;;;;;;;;18.70;52.00;;;;;;5123336;27;43587;-59
2022/12/28 05:36:08;;;;;;;;;;;18.70;52.00;;;;;;5131349;27;44061;-59
2022/12/28 05:38:36;;;;;;;;;;;18.70;52.00;;;;;;5126899;27;43775;-59
2022/12/28 05:41:07;;;;;;;;;;;18.70;51.90;;;;;;5127450;27;43370;-59
2022/12/28 05:43:34;;;;;;;;;;;18.60;52.00;;;;;;5126762;27;44217;-63
2022/12/28 05:46:03;;;;;;;;;;;18.70;52.10;;;;;;5127869;27;44668;-59
2022/12/28 05:48:32;;;;;;;;;;;18.70;52.00;;;;;;5125873;27;43433;-59
2022/12/28 05:51:08;;;;;;;;;;;18.60;52.00;;;;;;5127346;27;43400;-59
2022/12/28 05:53:35;;;;;;;;;;;18.60;52.10;;;;;;5126790;27;43440;-59
2022/12/28 05:56:04;;;;;;;;;;;18.60;52.20;;;;;;5126509;27;44688;-59
2022/12/28 05:58:37;;;;;;;;;;;18.60;52.20;;;;;;5126593;27;43489;-59
2022/12/28 06:01:05;;;;;;;;;;;18.60;52.20;;;;;;5127396;27;43452;-59
2022/12/28 06:03:32;;;;;;;;;;;18.60;52.30;;;;;;5138398;27;43539;-59
2022/12/28 06:06:08;;;;;;;;;;;18.60;52.30;;;;;;5131831;27;44804;-59
2022/12/28 06:08:36;;;;;;;;;;;18.60;52.20;;;;;;5136253;27;43459;-59
2022/12/28 06:11:06;;;;;;;;;;;18.60;52.30;;;;;;5141378;27;43468;-60
2022/12/28 06:13:34;;;;;;;;;;;18.60;52.30;;;;;;5146353;27;43491;-59
2022/12/28 06:16:05;;;;;;;;;;;18.50;52.30;;;;;;5132093;27;44925;-59
2022/12/28 06:18:33;;;;;;;;;;;18.50;52.40;;;;;;5139887;27;43819;-60
2022/12/28 06:21:08;;;;;;;;;;;18.50;52.40;;;;;;5140376;27;43407;-59
2022/12/28 06:23:36;;;;;;;;;;;18.50;52.40;;;;;;5139899;27;44113;-59
2022/12/28 06:26:05;;;;;;;;;;;18.50;52.40;;;;;;5131898;27;44686;-59
2022/12/28 06:28:33;;;;;;;;;;;18.50;52.50;;;;;;5137239;27;43716;-59
2022/12/28 06:31:07;;;;;;;;;;;18.50;52.50;;;;;;5144369;27;43475;-59
2022/12/28 06:33:34;;;;;;;;;;;18.50;52.50;;;;;;5144886;27;43544;-59
2022/12/28 06:36:02;;;;;;;;;;;18.50;52.50;;;;;;5143400;27;44147;-59
2022/12/28 06:38:31;;;;;;;;;;;18.50;52.60;;;;;;5144854;27;43354;-59
2022/12/28 06:41:02;;;;;;;;;;;18.50;52.60;;;;;;5140864;27;43398;-59
2022/12/28 06:43:46;;;;;;;;;;;18.50;52.60;;;;;;5134199;27;43498;-59
2022/12/28 06:46:14;;;;;;;;;;;18.50;52.60;;;;;;5144853;27;44993;-59
2022/12/28 06:48:41;;;;;;;;;;;18.50;52.60;;;;;;5131402;27;43560;-59
2022/12/28 06:51:10;;;;;;;;;;;18.50;52.60;;;;;;5142428;27;43532;-59
2022/12/28 06:53:38;;;;;;;;;;;18.50;52.50;;;;;;5146546;27;43903;-59
2022/12/28 06:56:12;;;;;;;;;;;18.50;52.50;;;;;;5146928;27;43803;-59
2022/12/28 06:58:41;;;;;;;;;;;18.50;52.50;;;;;;5145428;27;43564;-59
2022/12/28 07:01:11;;;;;;;;;;;18.50;52.50;;;;;;5145946;27;43664;-59
2022/12/28 07:03:38;;;;;;;;;;;18.50;52.50;;;;;;5143174;27;43617;-62
2022/12/28 07:06:06;;;;;;;;;;;18.50;52.80;;;;;;5145797;27;44607;-59
2022/12/28 07:08:34;;;;;;;;;;;18.50;53.20;;;;;;5145297;27;43898;-59
2022/12/28 07:11:03;;;;;;;;;;;18.50;52.70;;;;;;5146263;27;43502;-61
2022/12/28 07:13:30;;;;;;;;;;;18.50;52.60;;;;;;5145843;27;43430;-61
2022/12/28 07:16:00;;;;;;;;;;;18.60;52.60;;;;;;5146371;27;44917;-61
2022/12/28 07:18:28;;;;;;;;;;;18.50;52.60;;;;;;5140075;27;43483;-61
2022/12/28 07:21:03;;;;;;;;;;;18.50;52.60;;;;;;5140201;27;43523;-61
2022/12/28 07:23:31;;;;;;;;;;;18.50;52.60;;;;;;5127997;27;43544;-61
2022/12/28 07:26:03;;;;;;;;;;;18.50;52.60;;;;;;5137232;27;44766;-61
2022/12/28 07:28:31;;;;;;;;;;;18.50;52.50;;;;;;5143652;27;43455;-61
2022/12/28 07:30:58;;;;;;;;;;;18.50;52.60;;;;;;5141072;27;43463;-61
2022/12/28 07:33:25;;;;;;;;;;;18.50;52.60;;;;;;5128558;27;43629;-61
2022/12/28 07:35:53;;;;;;;;;;;18.50;52.60;;;;;;5138412;27;44723;-61
2022/12/28 07:38:20;;;;;;;;;;;18.50;52.60;;;;;;5141017;27;43531;-60
2022/12/28 07:40:47;;;;;;;;;;;18.50;52.60;;;;;;5131129;27;43459;-61
2022/12/28 07:43:15;;;;;;;;;;;18.50;52.60;;;;;;5145461;27;43421;-61
2022/12/28 07:45:42;;;;;;;;;;;18.50;52.60;;;;;;5145982;27;43788;-61
2022/12/28 07:48:09;;;;;;;;;;;18.50;52.60;;;;;;5144890;27;43354;-61
2022/12/28 07:50:36;;;;;;;;;;;18.50;52.70;;;;;;5145960;27;43459;-61
2022/12/28 07:53:04;;;;;;;;;;;18.50;52.60;;;;;;5145519;27;43551;-61
2022/12/28 07:55:31;;;;;;;;;;;18.50;52.70;;;;;;5144985;27;44862;-61
2022/12/28 07:57:59;;;;;;;;;;;18.50;52.70;;;;;;5144116;27;43820;-61
2022/12/28 08:00:27;;;;;;;;;;;18.50;52.80;;;;;;5133033;27;43420;-61
2022/12/28 08:02:55;;;;;;;;;;;18.50;52.80;;;;;;5144885;27;43481;-61
2022/12/28 08:05:23;;;;;;;;;;;18.50;52.80;;;;;;5138141;27;43785;-61
2022/12/28 08:07:50;;;;;;;;;;;18.50;52.80;;;;;;5144928;27;43428;-61
2022/12/28 08:10:17;;;;;;;;;;;18.40;52.80;;;;;;5143957;27;43472;-61
2022/12/28 08:12:44;;;;;;;;;;;18.40;52.90;;;;;;5137014;27;43410;-61
2022/12/28 08:15:12;;;;;;;;;;;18.40;52.80;;;;;;5145162;27;43948;-61
2022/12/28 08:17:39;;;;;;;;;;;18.40;52.90;;;;;;5144160;27;43614;-60
2022/12/28 08:20:07;;;;;;;;;;;18.40;52.80;;;;;;5145133;27;43448;-61
2022/12/28 08:22:35;;;;;;;;;;;18.40;52.90;;;;;;5144883;27;43418;-61
2022/12/28 08:25:02;;;;;;;;;;;18.40;52.90;;;;;;5144927;27;43671;-61
2022/12/28 08:27:29;;;;;;;;;;;18.40;52.90;;;;;;5145041;27;43512;-61
2022/12/28 08:30:04;;;;;;;;;;;18.40;52.90;;;;;;5144907;27;43390;-61
2022/12/28 08:32:32;;;;;;;;;;;18.40;53.00;;;;;;5144928;27;43389;-60
2022/12/28 08:34:59;;;;;;;;;;;18.40;53.00;;;;;;5145059;27;44695;-61
2022/12/28 08:37:26;;;;;;;;;;;18.40;53.00;;;;;;5143390;27;43503;-61
2022/12/28 08:39:54;;;;;;;;;;;18.40;53.00;;;;;;5144475;27;43420;-60
2022/12/28 08:42:22;;;;;;;;;;;18.40;53.00;;;;;;5126516;27;43536;-61
2022/12/28 08:44:49;;;;;;;;;;;18.40;53.10;;;;;;5137172;27;44785;-61
2022/12/28 08:47:17;;;;;;;;;;;18.40;53.10;;;;;;5144599;27;44600;-62
2022/12/28 08:49:44;;;;;;;;;;;18.40;53.10;;;;;;5144331;27;43478;-60
2022/12/28 08:52:11;;;;;;;;;;;18.40;53.10;;;;;;5144337;27;43446;-61
2022/12/28 08:54:39;;;;;;;;;;;18.40;53.00;;;;;;5144199;27;44011;-61
2022/12/28 08:57:06;;;;;;;;;;;18.40;53.00;;;;;;5144538;27;43602;-61
2022/12/28 08:59:33;;;;;;;;;;;18.40;53.00;;;;;;5143678;27;43446;-61
2022/12/28 09:02:00;;;;;;;;;;;18.40;53.00;;;;;;5145233;27;43979;-61
2022/12/28 09:04:28;;;;;;;;;;;18.40;53.00;;;;;;5131161;27;44036;-61
2022/12/28 09:06:55;;;;;;;;;;;18.40;53.00;;;;;;5142978;27;43492;-61
2022/12/28 09:09:23;;;;;;;;;;;18.40;53.30;;;;;;5143412;27;43489;-61
2022/12/28 09:11:50;;;;;;;;;;;18.40;53.10;;;;;;5140167;27;43437;-62
2022/12/28 09:14:17;;;;;;;;;;;18.40;53.40;;;;;;5143556;27;43924;-65
2022/12/28 09:16:53;;;;;;;;;;;18.40;53.40;;;;;;5144299;27;43747;-62
2022/12/28 09:19:21;;;;;;;;;;;18.40;53.40;;;;;;5138860;27;43447;-62
2022/12/28 09:21:51;;;;;;;;;;;18.40;53.30;;;;;;5143369;27;60582;-62
2022/12/28 09:24:20;;;;;;;;;;;18.40;53.30;;;;;;5143604;27;45021;-62
2022/12/28 09:26:49;;;;;;;;;;;18.50;53.30;;;;;;5143106;27;43467;-62
2022/12/28 09:29:17;;;;;;;;;;;18.50;53.20;;;;;;5143134;27;43397;-62
2022/12/28 09:31:44;;;;;;;;;;;18.60;53.10;;;;;;5144353;27;43391;-62
2022/12/28 09:34:12;;;;;;;;;;;18.60;53.10;;;;;;5142998;27;43789;-64
2022/12/28 09:36:59;;;;;;;;;;;18.70;53.20;;;;;;5144875;27;43505;-61
2022/12/28 09:39:28;;;;;;;;;;;18.70;53.10;;;;;;5140305;27;43388;-61
2022/12/28 09:42:16;;;;;;;;;;;18.80;53.00;;;;;;5129585;27;43527;-61
2022/12/28 09:44:43;;;;;;;;;;;18.80;53.00;;;;;;5133250;27;44811;-62
2022/12/28 09:47:11;;;;;;;;;;;18.90;53.00;;;;;;5143318;27;43435;-61
2022/12/28 09:49:39;;;;;;;;;;;18.90;52.90;;;;;;5142860;27;43541;-61
2022/12/28 09:52:09;;;;;;;;;;;18.90;52.90;;;;;;5143324;27;43496;-61
2022/12/28 09:54:38;;;;;;;;;;;19.00;52.80;;;;;;5142599;27;45013;-61
2022/12/28 09:57:15;;;;;;;;;;;19.00;52.80;;;;;;5143486;27;43468;-61
2022/12/28 09:59:43;;;;;;;;;;;19.10;52.90;;;;;;5142785;27;43560;-61
2022/12/28 10:02:36;;;;;;;;;;;19.10;52.80;;;;;;5142964;27;43390;-61
2022/12/28 10:05:04;;;;;;;;;;;19.20;52.80;;;;;;5132640;27;44702;-61
2022/12/28 10:07:32;;;;;;;;;;;19.20;52.90;;;;;;5143456;27;43522;-61
2022/12/28 10:09:59;;;;;;;;;;;19.30;53.10;;;;;;5142752;27;43545;-61
2022/12/28 10:12:28;;;;;;;;;;;19.40;52.80;;;;;;5143465;27;43495;-61
2022/12/28 10:14:56;;;;;;;;;;;19.50;52.80;;;;;;5143116;27;44965;-62
2022/12/28 10:17:29;;;;;;;;;;;19.60;52.90;;;;;;5143520;27;43520;-61
2022/12/28 10:19:57;;;;;;;;;;;19.70;52.50;;;;;;5124895;27;43441;-62
2022/12/28 10:22:26;;;;;;;;;;;19.80;52.50;;;;;;5145242;27;43492;-61
2022/12/28 10:24:53;;;;;;;;;;;19.80;52.20;;;;;;5138095;27;43781;-62
2022/12/28 10:27:28;;;;;;;;;;;19.90;52.40;;;;;;5147084;27;43771;-61
2022/12/28 10:29:58;;;;;;;;;;;20.00;52.50;;;;;;5146266;27;43479;-60
2022/12/28 10:32:26;;;;;;;;;;;20.10;52.20;;;;;;5147173;27;43572;-60
2022/12/28 10:34:54;;;;;;;;;;;20.20;51.90;;;;;;5145518;27;43787;-61
2022/12/28 10:37:22;;;;;;;;;;;20.40;51.80;;;;;;5145790;27;43384;-61
2022/12/28 10:39:57;;;;;;;;;;;20.50;51.70;;;;;;5145379;27;43460;-61
2022/12/28 10:42:28;;;;;;;;;;;20.50;51.40;;;;;;5147118;27;43558;-61
2022/12/28 10:44:58;;;;;;;;;;;20.60;51.30;;;;;;5146250;27;43780;-61
2022/12/28 10:47:26;;;;;;;;;;;20.70;51.30;;;;;;5143084;27;43440;-61
2022/12/28 10:49:53;;;;;;;;;;;20.80;51.30;;;;;;5130801;27;43400;-60
2022/12/28 10:52:41;;;;;;;;;;;20.80;51.10;;;;;;5135085;27;43427;-60
2022/12/28 10:55:28;;;;;;;;;;;20.80;51.20;;;;;;5141731;27;44671;-61
2022/12/28 10:57:55;;;;;;;;;;;20.80;51.40;;;;;;5128495;27;43804;-61
2022/12/28 11:00:51;;;;;;;;;;;20.80;51.30;;;;;;5133995;27;43450;-61
2022/12/28 11:03:23;;;;;;;;;;;20.80;51.30;;;;;;5141052;27;43542;-61
2022/12/28 11:06:05;;;;;;;;;;;20.90;51.40;;;;;;5136873;27;44052;-61
2022/12/28 11:08:33;;;;;;;;;;;20.90;51.20;;;;;;5134200;27;43877;-60
2022/12/28 11:11:00;;;;;;;;;;;20.90;51.20;;;;;;5144760;27;43517;-61
2022/12/28 11:13:28;;;;;;;;;;;20.90;51.20;;;;;;5138954;27;43555;-61
2022/12/28 11:15:55;;;;;;;;;;;20.90;51.50;;;;;;5139139;27;43779;-62
2022/12/28 11:18:23;;;;;;;;;;;20.90;51.50;;;;;;5141633;27;43410;-61
2022/12/28 11:20:51;;;;;;;;;;;20.90;51.60;;;;;;5139370;27;43507;-61
2022/12/28 11:23:30;;;;;;;;;;;20.90;51.50;;;;;;5140531;27;43595;-62
2022/12/28 11:25:58;;;;;;;;;;;20.90;51.60;;;;;;5140389;27;44002;-61
2022/12/28 11:28:26;;;;;;;;;;;21.00;51.50;;;;;;5143992;27;43558;-62
2022/12/28 11:30:54;;;;;;;;;;;21.00;51.40;;;;;;5143808;27;43419;-61
2022/12/28 11:33:21;;;;;;;;;;;21.00;51.40;;;;;;5140876;27;43467;-61
2022/12/28 11:35:51;;;;;;;;;;;21.00;51.40;;;;;;5143277;27;43778;-60
2022/12/28 11:38:38;;;;;;;;;;;21.00;51.30;;;;;;5142619;27;43512;-60
2022/12/28 11:41:08;;;;;;;;;;;21.10;51.40;;;;;;5143291;27;43538;-61
2022/12/28 11:43:40;;;;;;;;;;;21.00;51.40;;;;;;5142705;27;43576;-61
2022/12/28 11:46:20;;;;;;;;;;;21.00;51.30;;;;;;5143948;27;44266;-61
2022/12/28 11:48:58;;;;;;;;;;;21.00;51.40;;;;;;5143428;27;43523;-60
2022/12/28 11:51:33;;;;;;;;;;;21.10;51.50;;;;;;5144562;27;43559;-61
2022/12/28 11:54:06;;;;;;;;;;;21.10;51.50;;;;;;5143307;27;43580;-61
2022/12/28 11:56:42;;;;;;;;;;;21.10;51.50;;;;;;5144004;27;43767;-60
2022/12/28 11:59:26;;;;;;;;;;;21.10;51.50;;;;;;5140383;27;43604;-61
2022/12/28 12:02:16;;;;;;;;;;;21.00;51.50;;;;;;5141933;27;43529;-61
2022/12/28 12:04:45;;;;;;;;;;;21.10;51.60;;;;;;5132496;27;43488;-60
2022/12/28 12:07:12;;;;;;;;;;;21.00;51.50;;;;;;5144282;27;44073;-61
2022/12/28 12:09:42;;;;;;;;;;;21.10;51.60;;;;;;5142925;27;43427;-61
2022/12/28 12:12:12;;;;;;;;;;;21.00;51.60;;;;;;5136003;27;43557;-61
2022/12/28 12:14:47;;;;;;;;;;;21.00;51.60;;;;;;5138915;27;43448;-61
2022/12/28 12:17:26;;;;;;;;;;;21.00;51.60;;;;;;5139458;27;43941;-61
2022/12/28 12:19:56;;;;;;;;;;;21.00;51.60;;;;;;5140399;27;43607;-61
2022/12/28 12:22:27;;;;;;;;;;;21.00;51.80;;;;;;5125949;27;43480;-61
2022/12/28 12:25:02;;;;;;;;;;;21.00;51.80;;;;;;5139180;27;43519;-61
2022/12/28 12:27:32;;;;;;;;;;;21.00;51.80;;;;;;5141039;27;44826;-61
2022/12/28 12:30:01;;;;;;;;;;;21.00;51.80;;;;;;5126833;27;44419;-62
2022/12/28 12:32:50;;;;;;;;;;;20.90;51.80;;;;;;5124771;27;44933;-61
2022/12/28 12:35:25;;;;;;;;;;;20.90;51.90;;;;;;5141553;27;43493;-61
2022/12/28 12:37:54;;;;;;;;;;;20.90;51.90;;;;;;5141968;27;43879;-62
2022/12/28 12:40:40;;;;;;;;;;;20.90;51.90;;;;;;5143412;27;43695;-62
2022/12/28 12:43:13;;;;;;;;;;;20.90;52.00;;;;;;5142005;27;43467;-61
2022/12/28 12:45:44;;;;;;;;;;;20.90;52.00;;;;;;5140587;27;43350;-61
2022/12/28 12:48:17;;;;;;;;;;;20.90;52.00;;;;;;5142951;27;43851;-61
2022/12/28 12:50:47;;;;;;;;;;;20.80;52.00;;;;;;5143147;27;43517;-61
2022/12/28 12:53:29;;;;;;;;;;;20.80;52.00;;;;;;5142709;27;43436;-62
2022/12/28 12:56:02;;;;;;;;;;;20.80;52.10;;;;;;5144028;27;43440;-61
2022/12/28 12:58:39;;;;;;;;;;;20.80;52.10;;;;;;5137626;27;44042;-63
2022/12/28 13:01:06;;;;;;;;;;;20.80;52.10;;;;;;5142539;27;43556;-62
2022/12/28 13:03:42;;;;;;;;;;;20.80;52.20;;;;;;5142204;27;43502;-62
2022/12/28 13:06:12;;;;;;;;;;;20.80;52.20;;;;;;5140384;27;43409;-61
2022/12/28 13:09:08;;;;;;;;;;;20.80;52.20;;;;;;5139239;27;44188;-62
2022/12/28 13:11:36;;;;;;;;;;;20.80;52.30;;;;;;5139238;27;43472;-62
2022/12/28 13:14:04;;;;;;;;;;;20.80;52.40;;;;;;5139740;27;43430;-61
2022/12/28 13:16:32;;;;;;;;;;;20.80;52.30;;;;;;5132766;27;43515;-62
2022/12/28 13:19:03;;;;;;;;;;;20.80;52.40;;;;;;5129855;27;44880;-61
2022/12/28 13:21:45;;;;;;;;;;;20.80;52.20;;;;;;5140623;27;43494;-61
2022/12/28 13:24:39;;;;;;;;;;;20.80;52.30;;;;;;5130112;27;43429;-62
2022/12/28 13:27:16;;;;;;;;;;;20.80;52.30;;;;;;5125803;27;44740;-61
2022/12/28 13:29:50;;;;;;;;;;;20.80;52.30;;;;;;5130380;27;44648;-61
2022/12/28 13:32:24;;;;;;;;;;;20.80;52.30;;;;;;5140485;27;43502;-62
2022/12/28 13:34:51;;;;;;;;;;;20.80;52.30;;;;;;5127031;27;43560;-62
2022/12/28 13:37:19;;;;;;;;;;;20.80;52.40;;;;;;5130613;27;43627;-61
2022/12/28 13:39:46;;;;;;;;;;;20.80;52.40;;;;;;5142169;27;43856;-61
2022/12/28 13:42:18;;;;;;;;;;;20.80;52.40;;;;;;5142224;27;43401;-61
2022/12/28 13:44:46;;;;;;;;;;;20.70;52.40;;;;;;5134855;27;43399;-61
2022/12/28 13:47:16;;;;;;;;;;;20.70;52.40;;;;;;5137232;27;43603;-61
2022/12/28 13:49:55;;;;;;;;;;;20.70;52.40;;;;;;5139841;27;44081;-61
2022/12/28 13:52:30;;;;;;;;;;;20.70;52.40;;;;;;5137411;27;43864;-61
2022/12/28 13:54:59;;;;;;;;;;;20.70;53.10;;;;;;5140262;27;43506;-62
2022/12/28 13:57:28;;;;;;;;;;;20.70;52.50;;;;;;5145310;27;43506;-61
2022/12/28 14:00:20;;;;;;;;;;;20.70;52.40;;;;;;5140873;27;44039;-61
2022/12/28 14:02:49;;;;;;;;;;;20.60;52.40;;;;;;5143070;27;43500;-61
2022/12/28 14:05:17;;;;;;;;;;;20.70;52.60;;;;;;5141561;27;43547;-61
2022/12/28 14:07:46;;;;;;;;;;;20.70;52.40;;;;;;5141193;27;43629;-61
2022/12/28 14:10:13;;;;;;;;;;;20.70;52.40;;;;;;5139434;27;44675;-61
2022/12/28 14:12:41;;;;;;;;;;;20.70;52.40;;;;;;5145512;27;43424;-61
2022/12/28 14:15:09;;;;;;;;;;;20.70;52.40;;;;;;5143068;27;43434;-62
2022/12/28 14:17:37;;;;;;;;;;;20.70;52.30;;;;;;5145990;27;43988;-62
2022/12/28 14:20:05;;;;;;;;;;;20.70;52.40;;;;;;5144912;27;44765;-62
2022/12/28 14:22:33;;;;;;;;;;;20.70;52.40;;;;;;5145455;27;43415;-62
2022/12/28 14:25:02;;;;;;;;;;;20.70;52.40;;;;;;5146290;27;43569;-62
2022/12/28 14:27:31;;;;;;;;;;;20.70;52.40;;;;;;5144531;27;43634;-62
2022/12/28 14:30:03;;;;;;;;;;;20.70;52.40;;;;;;5145403;27;43785;-60
2022/12/28 14:32:32;;;;;;;;;;;20.70;52.30;;;;;;5146161;27;43790;-62
2022/12/28 14:35:13;;;;;;;;;;;20.70;52.30;;;;;;5141452;27;43465;-60
2022/12/28 14:37:41;;;;;;;;;;;20.60;52.40;;;;;;5145431;27;43582;-60
2022/12/28 14:40:20;;;;;;;;;;;20.60;52.30;;;;;;5145321;27;43792;-60
2022/12/28 14:42:48;;;;;;;;;;;20.70;52.30;;;;;;5144712;27;43660;-60
2022/12/28 14:45:34;;;;;;;;;;;20.70;52.30;;;;;;5142418;27;43384;-61
2022/12/28 14:48:23;;;;;;;;;;;20.70;52.30;;;;;;5139329;27;43482;-61
2022/12/28 14:50:58;;;;;;;;;;;20.70;52.20;;;;;;5138144;27;45265;-61
2022/12/28 14:53:25;;;;;;;;;;;20.80;52.30;;;;;;5143963;27;43578;-61
2022/12/28 14:55:59;;;;;;;;;;;20.80;52.20;;;;;;5142001;27;43466;-60
2022/12/28 14:58:47;;;;;;;;;;;20.80;52.30;;;;;;5139994;27;43532;-59
2022/12/28 15:01:17;;;;;;;;;;;20.70;52.30;;;;;;5134404;27;46790;-61